Time;durP1;ratioP1;P1;durP2;ratioP2;P2;SDS_P1;SDS_P2;PMS_P1;PMS_P2;Temp;Humidity;BMP_temperature;BMP_pressure;BME280_temperature;BME280_humidity;BME280_pressure;Samples;Min_cycle;Max_cycle;Signal;HPM_P1;HPM_P2
2024/04/02 00:00:37;;;;;;;2.63;2.43;;;10.30;99.90;;;;;;5067625;28;20468;-58
2024/04/02 00:03:07;;;;;;;3.33;3.03;;;10.30;99.90;;;;;;5067440;28;20530;-57
2024/04/02 00:05:34;;;;;;;3.20;2.90;;;10.30;99.90;;;;;;5067789;28;20217;-57
2024/04/02 00:08:02;;;;;;;2.80;2.37;;;10.30;99.90;;;;;;5067130;28;20958;-57
2024/04/02 00:10:28;;;;;;;3.20;2.90;;;10.30;99.90;;;;;;5067433;28;20929;-58
2024/04/02 00:12:54;;;;;;;2.73;2.53;;;10.30;99.90;;;;;;5054672;28;20429;-58
2024/04/02 00:15:19;;;;;;;3.60;2.40;;;10.40;99.90;;;;;;5054154;28;20513;-58
2024/04/02 00:17:45;;;;;;;2.60;2.40;;;10.40;99.90;;;;;;5053668;28;20206;-55
2024/04/02 00:20:12;;;;;;;4.80;2.37;;;10.30;99.90;;;;;;5054217;28;20205;-58
2024/04/02 00:22:37;;;;;;;3.07;2.53;;;10.30;99.90;;;;;;5046593;28;20548;-57
2024/04/02 00:25:03;;;;;;;2.60;2.40;;;10.40;99.90;;;;;;5053131;28;20424;-58
2024/04/02 00:27:29;;;;;;;2.37;2.17;;;10.40;99.90;;;;;;5053818;28;20210;-58
2024/04/02 00:29:55;;;;;;;2.90;1.83;;;10.40;99.90;;;;;;5054028;28;20433;-57
2024/04/02 00:32:22;;;;;;;2.70;2.00;;;10.40;99.90;;;;;;5053946;28;20502;-57
2024/04/02 00:34:48;;;;;;;2.20;2.00;;;10.40;99.90;;;;;;5053640;28;20179;-57
2024/04/02 00:37:14;;;;;;;2.27;2.07;;;10.50;99.90;;;;;;5050010;28;20899;-56
2024/04/02 00:39:39;;;;;;;2.73;1.37;;;10.50;99.90;;;;;;5045944;28;20460;-57
2024/04/02 00:42:05;;;;;;;2.13;1.40;;;10.50;99.90;;;;;;5053599;28;20421;-57
2024/04/02 00:44:34;;;;;;;1.50;1.40;;;10.60;99.90;;;;;;5049444;28;20183;-58
2024/04/02 00:47:01;;;;;;;2.53;1.80;;;10.60;99.90;;;;;;5053301;28;20936;-57
2024/04/02 00:49:26;;;;;;;2.40;1.90;;;10.60;99.90;;;;;;5053972;28;20499;-57
2024/04/02 00:51:53;;;;;;;2.00;1.80;;;10.60;99.90;;;;;;5053661;28;20421;-59
2024/04/02 00:54:19;;;;;;;3.03;1.97;;;10.60;99.90;;;;;;5053525;28;20576;-59
2024/04/02 00:56:45;;;;;;;3.30;2.20;;;10.70;99.90;;;;;;5053227;28;20417;-57
2024/04/02 00:59:11;;;;;;;2.30;2.10;;;10.70;99.90;;;;;;5024250;28;20278;-58
2024/04/02 01:01:37;;;;;;;2.60;2.40;;;10.70;99.90;;;;;;5048592;28;20635;-56
2024/04/02 01:04:02;;;;;;;2.40;2.20;;;10.80;99.90;;;;;;5053175;28;20440;-56
2024/04/02 01:06:28;;;;;;;3.70;3.13;;;10.80;99.90;;;;;;5053151;28;20433;-56
2024/04/02 01:08:54;;;;;;;2.90;2.70;;;10.80;99.90;;;;;;5052954;28;20272;-57
2024/04/02 01:11:21;;;;;;;3.07;2.37;;;10.80;99.90;;;;;;5053185;28;20457;-55
2024/04/02 01:13:47;;;;;;;3.50;2.70;;;10.80;99.90;;;;;;5052789;28;20417;-57
2024/04/02 01:16:19;;;;;;;3.80;2.97;;;10.80;99.90;;;;;;5053031;28;20417;-54
2024/04/02 01:18:45;;;;;;;3.10;2.70;;;10.80;99.90;;;;;;5052892;28;20494;-57
2024/04/02 01:21:11;;;;;;;3.60;2.80;;;10.80;99.90;;;;;;5052820;28;20469;-57
2024/04/02 01:23:37;;;;;;;3.20;2.90;;;10.70;99.90;;;;;;5051872;28;20446;-57
2024/04/02 01:26:03;;;;;;;4.40;2.97;;;10.70;99.90;;;;;;5052774;28;20507;-54
2024/04/02 01:28:29;;;;;;;5.23;2.97;;;10.60;99.90;;;;;;5052495;28;20195;-56
2024/04/02 01:30:54;;;;;;;2.97;2.77;;;10.60;99.90;;;;;;5052588;28;20658;-53
2024/04/02 01:33:20;;;;;;;3.73;3.33;;;10.60;99.90;;;;;;5036316;28;20184;-56
2024/04/02 01:35:45;;;;;;;3.30;3.00;;;10.60;99.90;;;;;;5032738;28;20179;-57
2024/04/02 01:38:11;;;;;;;3.30;2.63;;;10.60;99.90;;;;;;5032104;28;20204;-57
2024/04/02 01:40:36;;;;;;;2.67;2.47;;;10.60;99.90;;;;;;5032791;28;20203;-57
2024/04/02 01:43:02;;;;;;;3.90;3.07;;;10.50;99.90;;;;;;5032316;28;20550;-57
2024/04/02 01:45:28;;;;;;;3.60;2.30;;;10.50;99.90;;;;;;5032589;28;20243;-57
2024/04/02 01:47:54;;;;;;;2.90;2.70;;;10.50;99.90;;;;;;5032148;28;20708;-57
2024/04/02 01:50:19;;;;;;;4.33;2.43;;;10.50;99.90;;;;;;5031511;28;20254;-56
2024/04/02 01:52:45;;;;;;;2.50;2.17;;;10.50;99.90;;;;;;5032006;28;20179;-57
2024/04/02 01:55:10;;;;;;;3.33;1.97;;;10.50;99.90;;;;;;5032361;28;20183;-57
2024/04/02 01:57:36;;;;;;;7.77;2.57;;;10.40;99.90;;;;;;5031998;28;20214;-57
2024/04/02 02:00:03;;;;;;;2.83;2.50;;;10.40;99.90;;;;;;5032036;28;20211;-55
2024/04/02 02:02:29;;;;;;;2.90;2.47;;;10.40;99.90;;;;;;5032467;28;20221;-57
2024/04/02 02:04:55;;;;;;;2.43;2.23;;;10.40;99.90;;;;;;5032176;28;20936;-56
2024/04/02 02:07:21;;;;;;;3.30;2.23;;;10.40;99.90;;;;;;5031798;28;20183;-58
2024/04/02 02:09:46;;;;;;;2.23;2.03;;;10.30;99.90;;;;;;5032129;28;20426;-57
2024/04/02 02:12:12;;;;;;;2.30;2.10;;;10.30;99.90;;;;;;5032176;28;20183;-58
2024/04/02 02:14:37;;;;;;;3.63;1.90;;;10.20;99.90;;;;;;5032268;28;20218;-56
2024/04/02 02:17:03;;;;;;;2.07;1.97;;;10.20;99.90;;;;;;5031701;28;20270;-58
2024/04/02 02:19:29;;;;;;;4.73;2.20;;;10.10;99.90;;;;;;5031876;28;20226;-57
2024/04/02 02:21:55;;;;;;;2.23;1.97;;;10.10;99.90;;;;;;5031428;28;20176;-58
2024/04/02 02:24:20;;;;;;;2.53;1.97;;;10.00;99.90;;;;;;5032097;28;20498;-58
2024/04/02 02:26:46;;;;;;;2.97;2.40;;;10.00;99.90;;;;;;5031855;28;20188;-57
2024/04/02 02:29:11;;;;;;;2.07;1.87;;;10.00;99.90;;;;;;5031624;28;20211;-58
2024/04/02 02:31:39;;;;;;;3.13;2.43;;;9.90;99.90;;;;;;5031845;28;20194;-57
2024/04/02 02:34:05;;;;;;;1.90;1.80;;;9.80;99.90;;;;;;5031298;28;20249;-55
2024/04/02 02:36:30;;;;;;;3.43;2.00;;;9.80;99.90;;;;;;5031438;28;20426;-57
2024/04/02 02:38:56;;;;;;;4.07;1.83;;;9.70;99.90;;;;;;5031364;28;20294;-58
2024/04/02 02:41:22;;;;;;;1.70;1.60;;;9.60;99.90;;;;;;5031736;28;20213;-58
2024/04/02 02:43:48;;;;;;;4.20;1.80;;;9.60;99.90;;;;;;5031635;28;20210;-58
2024/04/02 02:46:13;;;;;;;3.77;1.80;;;9.50;99.90;;;;;;5031458;28;20225;-58
2024/04/02 02:48:39;;;;;;;2.60;2.27;;;9.50;99.90;;;;;;5031483;28;20434;-58
2024/04/02 02:51:04;;;;;;;3.03;1.63;;;9.50;99.90;;;;;;5031194;28;20198;-56
2024/04/02 02:53:30;;;;;;;3.67;2.00;;;9.50;99.90;;;;;;5031657;28;20179;-58
2024/04/02 02:55:56;;;;;;;3.20;2.70;;;9.40;99.90;;;;;;5031491;28;20191;-58
2024/04/02 02:58:22;;;;;;;3.07;2.73;;;9.50;99.90;;;;;;5031416;28;20203;-56
2024/04/02 03:00:48;;;;;;;3.53;2.63;;;9.50;99.90;;;;;;5031163;28;20457;-56
2024/04/02 03:03:14;;;;;;;3.20;2.97;;;9.50;99.90;;;;;;5031153;28;20564;-59
2024/04/02 03:05:40;;;;;;;2.50;2.33;;;9.40;99.90;;;;;;5031320;28;20180;-57
2024/04/02 03:08:06;;;;;;;2.90;1.63;;;9.40;99.90;;;;;;5031337;28;20919;-57
2024/04/02 03:10:31;;;;;;;2.10;1.87;;;9.40;99.90;;;;;;5031388;28;20480;-58
2024/04/02 03:12:57;;;;;;;5.40;4.40;;;9.40;99.90;;;;;;5031354;28;20208;-57
2024/04/02 03:15:23;;;;;;;2.73;2.33;;;9.40;99.90;;;;;;5031619;28;20666;-53
2024/04/02 03:17:49;;;;;;;2.63;1.97;;;9.40;99.90;;;;;;5031167;28;20273;-58
2024/04/02 03:20:14;;;;;;;3.30;2.30;;;9.30;99.90;;;;;;5030809;28;20450;-58
2024/04/02 03:22:40;;;;;;;5.70;2.17;;;9.30;99.90;;;;;;5031219;28;20185;-58
2024/04/02 03:25:06;;;;;;;3.37;2.50;;;9.40;99.90;;;;;;5031048;28;20555;-58
2024/04/02 03:27:31;;;;;;;2.63;2.43;;;9.40;99.90;;;;;;5030992;28;20207;-55
2024/04/02 03:29:57;;;;;;;1.80;1.70;;;9.40;99.90;;;;;;5031030;28;20183;-58
2024/04/02 03:32:22;;;;;;;4.27;1.93;;;9.50;99.90;;;;;;5031118;28;20214;-56
2024/04/02 03:34:48;;;;;;;2.20;2.00;;;9.60;99.90;;;;;;5031396;28;20261;-58
2024/04/02 03:37:14;;;;;;;2.60;2.40;;;9.60;99.90;;;;;;5046029;28;20225;-58
2024/04/02 03:39:39;;;;;;;2.70;1.93;;;9.60;99.90;;;;;;5031219;28;20215;-58
2024/04/02 03:42:06;;;;;;;3.27;2.27;;;9.60;99.90;;;;;;5030859;28;20420;-58
2024/04/02 03:44:33;;;;;;;4.80;2.50;;;9.60;99.90;;;;;;5031243;28;20547;-57
2024/04/02 03:46:59;;;;;;;2.20;2.10;;;9.70;99.90;;;;;;5031983;28;20424;-57
2024/04/02 03:49:26;;;;;;;2.20;2.00;;;9.70;99.90;;;;;;5034639;28;20502;-58
2024/04/02 03:51:51;;;;;;;2.43;2.20;;;9.70;99.90;;;;;;5034591;28;20441;-57
2024/04/02 03:54:17;;;;;;;2.70;2.33;;;9.70;99.90;;;;;;5034470;28;20414;-55
2024/04/02 03:56:42;;;;;;;2.90;2.70;;;9.70;99.90;;;;;;5037302;22;20271;-58
2024/04/02 03:59:08;;;;;;;2.27;2.07;;;9.80;99.90;;;;;;5011043;28;20180;-57
2024/04/02 04:01:34;;;;;;;2.50;2.30;;;9.80;99.90;;;;;;4999905;28;20207;-60
2024/04/02 04:03:59;;;;;;;1.50;1.40;;;9.80;99.90;;;;;;5012390;28;20182;-59
2024/04/02 04:06:25;;;;;;;2.40;2.20;;;9.80;99.90;;;;;;5013300;28;20270;-60
2024/04/02 04:08:50;;;;;;;2.27;2.07;;;9.70;99.90;;;;;;5004781;28;20262;-59
2024/04/02 04:11:17;;;;;;;2.50;2.30;;;9.70;99.90;;;;;;5011878;28;20286;-59
2024/04/02 04:13:43;;;;;;;4.20;2.50;;;9.70;99.90;;;;;;5009519;28;20270;-60
2024/04/02 04:16:08;;;;;;;2.93;2.60;;;9.60;99.90;;;;;;5006016;28;20468;-59
2024/04/02 04:18:34;;;;;;;5.20;2.30;;;9.60;99.90;;;;;;5013315;28;20247;-54
2024/04/02 04:21:01;;;;;;;2.37;2.27;;;9.60;99.90;;;;;;5003657;28;20247;-58
2024/04/02 04:23:28;;;;;;;2.97;2.63;;;9.60;99.90;;;;;;5000659;28;20268;-58
2024/04/02 04:25:59;;;;;;;4.50;2.60;;;9.50;99.90;;;;;;5004085;28;20474;-59
2024/04/02 04:28:25;;;;;;;3.50;3.20;;;9.40;99.90;;;;;;4991579;28;20520;-58
2024/04/02 04:30:59;;;;;;;4.20;3.20;;;9.40;99.90;;;;;;5002307;28;20412;-57
2024/04/02 04:33:25;;;;;;;2.90;2.70;;;9.40;99.90;;;;;;4995362;28;20419;-58
2024/04/02 04:35:51;;;;;;;3.77;2.70;;;9.40;99.90;;;;;;5001943;28;20495;-58
2024/04/02 04:38:18;;;;;;;3.47;3.10;;;9.40;99.90;;;;;;5006665;28;20480;-59
2024/04/02 04:40:44;;;;;;;3.80;2.73;;;9.40;99.90;;;;;;5006751;28;20458;-58
2024/04/02 04:43:11;;;;;;;3.17;2.87;;;9.40;99.90;;;;;;5012351;28;20429;-62
2024/04/02 04:45:36;;;;;;;3.70;3.30;;;9.40;99.90;;;;;;5011663;28;20420;-62
2024/04/02 04:48:06;;;;;;;7.60;3.20;;;9.50;99.90;;;;;;5011892;28;20429;-62
2024/04/02 04:50:32;;;;;;;3.30;3.00;;;9.50;99.90;;;;;;5013092;28;20193;-61
2024/04/02 04:52:59;;;;;;;5.43;3.17;;;9.50;99.90;;;;;;5015028;28;20601;-63
2024/04/02 04:55:25;;;;;;;5.97;3.37;;;9.60;99.90;;;;;;5012350;28;20435;-64
2024/04/02 04:57:51;;;;;;;2.90;2.70;;;9.70;99.90;;;;;;5012539;28;20497;-63
2024/04/02 05:00:16;;;;;;;4.80;4.13;;;9.70;99.90;;;;;;5017391;28;20242;-67
2024/04/02 05:02:42;;;;;;;3.60;3.17;;;9.70;99.90;;;;;;5012615;28;20594;-61
2024/04/02 05:05:07;;;;;;;3.93;3.20;;;9.80;99.90;;;;;;5011896;28;20198;-62
2024/04/02 05:07:33;;;;;;;4.23;3.73;;;9.80;99.90;;;;;;5011891;28;20567;-61
2024/04/02 05:09:59;;;;;;;4.50;4.03;;;9.80;99.90;;;;;;5011579;28;20184;-63
2024/04/02 05:12:24;;;;;;;4.03;3.17;;;9.80;99.90;;;;;;5011644;28;20187;-64
2024/04/02 05:14:50;;;;;;;4.33;3.53;;;9.80;99.90;;;;;;5011041;28;20420;-61
2024/04/02 05:17:16;;;;;;;4.20;3.27;;;9.80;99.90;;;;;;5012300;28;20781;-62
2024/04/02 05:19:41;;;;;;;4.07;3.60;;;9.70;99.90;;;;;;5013083;28;20254;-62
2024/04/02 05:22:08;;;;;;;3.80;3.33;;;9.70;99.90;;;;;;5002596;28;20195;-62
2024/04/02 05:24:34;;;;;;;8.57;4.27;;;9.80;99.90;;;;;;5009727;28;20216;-62
2024/04/02 05:27:03;;;;;;;3.87;3.47;;;9.80;99.90;;;;;;5009104;28;20529;-62
2024/04/02 05:29:29;;;;;;;4.50;3.67;;;9.80;99.90;;;;;;5012291;28;20208;-61
2024/04/02 05:31:55;;;;;;;6.33;3.80;;;9.80;99.90;;;;;;5012486;28;20434;-62
2024/04/02 05:34:21;;;;;;;5.00;3.37;;;9.90;99.90;;;;;;5011969;28;20432;-62
2024/04/02 05:36:47;;;;;;;4.53;4.13;;;9.90;99.90;;;;;;5006280;28;20263;-62
2024/04/02 05:39:12;;;;;;;4.63;4.23;;;9.90;99.90;;;;;;5010135;28;20729;-64
2024/04/02 05:41:38;;;;;;;5.63;3.73;;;9.90;99.90;;;;;;5011507;28;20218;-61
2024/04/02 05:44:03;;;;;;;5.00;3.90;;;9.90;99.90;;;;;;5011526;28;20263;-61
2024/04/02 05:46:29;;;;;;;5.00;3.27;;;10.00;99.90;;;;;;5011560;28;20352;-61
2024/04/02 05:48:55;;;;;;;3.90;3.50;;;10.00;99.90;;;;;;5011709;28;20177;-61
2024/04/02 05:51:20;;;;;;;3.97;3.67;;;10.10;99.90;;;;;;5012869;28;20263;-65
2024/04/02 05:53:46;;;;;;;3.97;3.50;;;10.20;99.90;;;;;;5012186;28;20192;-65
2024/04/02 05:56:13;;;;;;;4.03;3.13;;;10.30;99.90;;;;;;5014532;28;20769;-61
2024/04/02 05:58:38;;;;;;;3.57;3.27;;;10.50;99.90;;;;;;5013852;28;20192;-61
2024/04/02 06:01:05;;;;;;;5.03;2.97;;;10.80;99.90;;;;;;5010928;28;20850;-61
2024/04/02 06:03:31;;;;;;;3.07;2.87;;;10.70;99.90;;;;;;5011249;28;20202;-61
2024/04/02 06:06:00;;;;;;;4.20;2.90;;;10.90;99.90;;;;;;5011396;28;20451;-61
2024/04/02 06:08:26;;;;;;;3.77;3.23;;;11.00;99.90;;;;;;5011052;28;20253;-60
2024/04/02 06:10:52;;;;;;;8.83;4.20;;;11.00;99.90;;;;;;5010640;28;20491;-61
2024/04/02 06:13:18;;;;;;;5.00;3.20;;;11.10;99.90;;;;;;5010552;28;20458;-60
2024/04/02 06:15:44;;;;;;;3.30;3.10;;;11.30;99.90;;;;;;5011211;28;20266;-61
2024/04/02 06:18:10;;;;;;;4.30;3.27;;;11.60;99.90;;;;;;5010747;28;20216;-60
2024/04/02 06:20:36;;;;;;;3.33;3.03;;;11.70;99.90;;;;;;5010974;28;20515;-61
2024/04/02 06:23:01;;;;;;;4.03;3.73;;;12.30;99.90;;;;;;5011741;28;20189;-61
2024/04/02 06:25:28;;;;;;;6.87;3.63;;;12.10;99.90;;;;;;5012119;28;20188;-61
2024/04/02 06:27:53;;;;;;;3.73;3.40;;;12.20;99.90;;;;;;5011592;28;20195;-61
2024/04/02 06:30:19;;;;;;;3.90;3.60;;;11.90;99.90;;;;;;5009972;28;20833;-61
2024/04/02 06:32:44;;;;;;;5.93;3.57;;;11.70;99.90;;;;;;5011055;28;20186;-61
2024/04/02 06:35:11;;;;;;;3.97;3.40;;;12.40;99.90;;;;;;5011057;28;20227;-61
2024/04/02 06:37:36;;;;;;;3.50;3.20;;;12.50;99.90;;;;;;5010947;28;20239;-60
2024/04/02 06:40:03;;;;;;;4.33;3.10;;;12.70;99.90;;;;;;5010753;28;20459;-59
2024/04/02 06:42:28;;;;;;;5.10;3.00;;;12.60;99.90;;;;;;5010956;28;20210;-61
2024/04/02 06:44:54;;;;;;;3.07;2.87;;;13.60;99.90;;;;;;5011875;28;20869;-60
2024/04/02 06:47:20;;;;;;;4.70;3.83;;;13.00;99.90;;;;;;5011034;28;20204;-60
2024/04/02 06:49:46;;;;;;;3.00;2.80;;;13.10;99.90;;;;;;5009646;28;20518;-61
2024/04/02 06:52:11;;;;;;;2.80;2.60;;;13.00;99.90;;;;;;4995328;28;20177;-61
2024/04/02 06:54:37;;;;;;;7.27;3.20;;;12.90;99.90;;;;;;4995740;28;20190;-64
2024/04/02 06:57:04;;;;;;;4.63;2.70;;;12.70;99.90;;;;;;4991310;28;20237;-63
2024/04/02 06:59:29;;;;;;;3.00;2.37;;;13.30;99.90;;;;;;4996828;28;20427;-61
2024/04/02 07:01:55;;;;;;;3.03;2.33;;;13.10;99.90;;;;;;5007514;28;20285;-61
2024/04/02 07:04:21;;;;;;;2.20;2.10;;;14.20;99.90;;;;;;5011978;28;20176;-61
2024/04/02 07:06:46;;;;;;;3.43;2.80;;;13.90;99.90;;;;;;5013352;28;20211;-60
2024/04/02 07:09:12;;;;;;;6.93;2.77;;;14.80;99.90;;;;;;5013054;28;20613;-62
2024/04/02 07:11:37;;;;;;;4.57;2.37;;;14.30;99.90;;;;;;5013794;28;20208;-62
2024/04/02 07:14:03;;;;;;;4.73;3.30;;;14.20;99.90;;;;;;5012684;28;20195;-61
2024/04/02 07:16:28;;;;;;;2.93;2.20;;;14.10;99.90;;;;;;5012816;28;20615;-61
2024/04/02 07:18:54;;;;;;;4.40;2.13;;;13.60;99.90;;;;;;5012051;28;20195;-62
2024/04/02 07:21:20;;;;;;;5.60;2.37;;;13.70;99.90;;;;;;5012290;28;20305;-61
2024/04/02 07:23:45;;;;;;;2.20;2.10;;;14.30;99.90;;;;;;5017497;28;20171;-61
2024/04/02 07:26:11;;;;;;;3.40;1.90;;;15.00;99.90;;;;;;5017682;28;20228;-60
2024/04/02 07:28:36;;;;;;;4.70;2.00;;;14.80;99.90;;;;;;5017110;28;20177;-62
2024/04/02 07:31:03;;;;;;;7.60;2.23;;;14.00;99.90;;;;;;5016682;28;20194;-62
2024/04/02 07:33:28;;;;;;;2.27;2.00;;;13.90;99.90;;;;;;5016834;28;20294;-61
2024/04/02 07:35:58;;;;;;;4.40;1.80;;;15.00;99.90;;;;;;5017361;28;20519;-62
2024/04/02 07:38:23;;;;;;;3.37;2.13;;;14.70;99.90;;;;;;5015882;28;20185;-62
2024/04/02 07:40:49;;;;;;;2.50;1.73;;;14.30;99.90;;;;;;5016316;28;20958;-60
2024/04/02 07:43:16;;;;;;;5.73;1.67;;;14.30;99.90;;;;;;5016449;28;20191;-60
2024/04/02 07:45:49;;;;;;;2.33;1.90;;;14.00;99.90;;;;;;5014269;28;20451;-61
2024/04/02 07:48:14;;;;;;;6.30;2.47;;;14.20;99.90;;;;;;5014421;28;20903;-67
2024/04/02 07:50:40;;;;;;;2.27;2.07;;;13.60;99.90;;;;;;5015984;28;20457;-63
2024/04/02 07:53:05;;;;;;;4.33;2.90;;;13.60;99.90;;;;;;5015630;28;20604;-64
2024/04/02 07:55:31;;;;;;;3.20;2.37;;;14.20;99.90;;;;;;5016265;28;20188;-63
2024/04/02 07:57:56;;;;;;;2.47;2.27;;;14.20;99.90;;;;;;5015982;28;20258;-68
2024/04/02 08:00:22;;;;;;;5.50;2.60;;;13.60;99.90;;;;;;5013600;28;20258;-62
2024/04/02 08:02:48;;;;;;;2.57;2.03;;;13.20;99.90;;;;;;5013266;28;20180;-65
2024/04/02 08:05:14;;;;;;;4.03;2.07;;;13.40;99.90;;;;;;5015185;28;20583;-59
2024/04/02 08:07:49;;;;;;;4.10;2.40;;;13.20;99.90;;;;;;5006820;28;20306;-56
2024/04/02 08:10:15;;;;;;;3.20;2.33;;;13.20;99.90;;;;;;5012857;28;20429;-57
2024/04/02 08:12:41;;;;;;;2.40;2.20;;;13.00;99.90;;;;;;5013147;28;20838;-58
2024/04/02 08:15:07;;;;;;;2.37;2.17;;;12.90;99.90;;;;;;5013354;28;20642;-57
2024/04/02 08:17:32;;;;;;;2.70;2.20;;;12.90;99.90;;;;;;5012910;28;20445;-63
2024/04/02 08:19:58;;;;;;;2.53;2.33;;;12.90;99.90;;;;;;5013218;28;20557;-58
2024/04/02 08:22:24;;;;;;;5.90;2.60;;;13.60;99.90;;;;;;5012452;28;20442;-65
2024/04/02 08:24:53;;;;;;;2.10;1.93;;;13.70;99.90;;;;;;5012821;28;20188;-57
2024/04/02 08:27:18;;;;;;;1.83;1.70;;;13.70;99.90;;;;;;5012448;28;20217;-59
2024/04/02 08:29:45;;;;;;;3.43;2.13;;;13.60;99.90;;;;;;5010866;28;20426;-60
2024/04/02 08:32:10;;;;;;;2.00;1.80;;;14.40;99.90;;;;;;5011942;28;20602;-60
2024/04/02 08:34:36;;;;;;;3.87;1.83;;;14.40;99.90;;;;;;5012019;28;20435;-58
2024/04/02 08:37:02;;;;;;;3.97;2.30;;;14.40;99.90;;;;;;5011820;28;20835;-60
2024/04/02 08:39:27;;;;;;;3.97;2.40;;;14.40;99.90;;;;;;5011994;28;20212;-57
2024/04/02 08:42:03;;;;;;;6.37;3.57;;;14.30;99.90;;;;;;5012297;28;20234;-58
2024/04/02 08:44:33;;;;;;;4.10;2.43;;;14.50;99.90;;;;;;5012275;28;20238;-59
2024/04/02 08:47:00;;;;;;;4.10;2.60;;;13.90;99.90;;;;;;5012646;28;20441;-58
2024/04/02 08:49:26;;;;;;;7.23;4.30;;;13.80;99.90;;;;;;5013021;28;20532;-59
2024/04/02 08:51:52;;;;;;;3.33;2.30;;;14.20;99.90;;;;;;5013656;28;20786;-58
2024/04/02 08:54:18;;;;;;;9.73;2.63;;;14.20;99.90;;;;;;5012349;28;20433;-59
2024/04/02 08:56:44;;;;;;;7.40;3.10;;;14.40;99.90;;;;;;5012261;28;20535;-59
2024/04/02 08:59:09;;;;;;;6.30;3.60;;;14.40;99.90;;;;;;5013776;28;20516;-60
2024/04/02 09:01:36;;;;;;;5.53;2.07;;;14.80;99.90;;;;;;5014220;28;20469;-60
2024/04/02 09:04:03;;;;;;;3.73;2.80;;;14.30;99.90;;;;;;5005274;28;20187;-55
2024/04/02 09:06:29;;;;;;;3.00;2.60;;;14.60;99.90;;;;;;5007351;28;20626;-59
2024/04/02 09:08:56;;;;;;;3.27;2.20;;;14.10;99.90;;;;;;5014452;28;20750;-60
2024/04/02 09:11:23;;;;;;;6.60;1.90;;;13.80;99.90;;;;;;5013866;28;20441;-57
2024/04/02 09:13:48;;;;;;;3.80;1.70;;;13.60;99.90;;;;;;5011402;28;20424;-58
2024/04/02 09:16:14;;;;;;;8.90;2.53;;;13.20;99.90;;;;;;5010773;28;20471;-60
2024/04/02 09:18:45;;;;;;;2.67;2.37;;;13.40;99.90;;;;;;5011305;28;20196;-57
2024/04/02 09:21:14;;;;;;;2.10;1.73;;;14.00;99.90;;;;;;5011202;28;20281;-57
2024/04/02 09:23:40;;;;;;;4.23;1.50;;;14.50;99.90;;;;;;5011231;28;20420;-62
2024/04/02 09:26:09;;;;;;;1.97;1.10;;;14.90;99.90;;;;;;5011241;28;20929;-56
2024/04/02 09:28:39;;;;;;;2.57;1.60;;;15.20;99.90;;;;;;5010629;28;20186;-56
2024/04/02 09:31:04;;;;;;;5.13;1.77;;;15.40;99.90;;;;;;5008569;28;20423;-57
2024/04/02 09:33:31;;;;;;;3.43;1.70;;;15.30;99.90;;;;;;5010864;28;20548;-59
2024/04/02 09:36:09;;;;;;;2.87;1.47;;;14.90;99.90;;;;;;5010570;28;20258;-56
2024/04/02 09:38:36;;;;;;;1.30;1.03;;;14.50;99.90;;;;;;5010624;28;20431;-57
2024/04/02 09:41:03;;;;;;;2.90;1.57;;;14.00;99.90;;;;;;5010540;28;20825;-58
2024/04/02 09:43:31;;;;;;;3.80;1.40;;;14.40;99.90;;;;;;5010170;28;20448;-55
2024/04/02 09:46:00;;;;;;;177.67;116.13;;;14.40;99.90;;;;;;5004262;28;20438;-57
2024/04/02 09:48:29;;;;;;;8.20;2.47;;;14.60;99.90;;;;;;5010305;28;20417;-58
2024/04/02 09:50:57;;;;;;;2.60;1.60;;;14.60;99.90;;;;;;5010708;28;20430;-58
2024/04/02 09:53:24;;;;;;;1.80;1.70;;;14.40;99.90;;;;;;5010519;28;20493;-56
2024/04/02 09:58:19;;;;;;;1.43;1.10;;;14.00;99.90;;;;;;5010597;28;20472;-52
2024/04/02 10:00:49;;;;;;;3.57;1.20;;;13.70;99.90;;;;;;5012879;28;20944;-50
2024/04/02 10:03:15;;;;;;;3.20;1.70;;;13.70;99.90;;;;;;5012601;28;20941;-53
2024/04/02 10:05:41;;;;;;;3.60;1.60;;;13.70;99.90;;;;;;5012518;28;20517;-51
2024/04/02 10:08:07;;;;;;;3.17;1.83;;;13.80;99.90;;;;;;5012604;28;20530;-52
2024/04/02 10:10:40;;;;;;;2.40;1.30;;;13.70;99.90;;;;;;5012197;28;20665;-55
2024/04/02 10:13:06;;;;;;;2.20;1.20;;;14.20;99.90;;;;;;5012544;28;20222;-51
2024/04/02 10:15:33;;;;;;;1.93;1.27;;;13.90;99.90;;;;;;5012474;28;20428;-49
2024/04/02 10:18:00;;;;;;;4.00;2.40;;;13.90;99.90;;;;;;5012783;28;20447;-56
2024/04/02 10:20:32;;;;;;;4.53;1.50;;;14.00;99.90;;;;;;5012899;28;20455;-51
2024/04/02 10:22:59;;;;;;;4.50;1.70;;;13.80;99.90;;;;;;5012543;28;20424;-52
2024/04/02 10:25:27;;;;;;;2.43;1.47;;;13.60;99.90;;;;;;5012414;28;20419;-54
2024/04/02 10:27:57;;;;;;;2.50;1.40;;;13.80;99.90;;;;;;5012493;28;20821;-55
2024/04/02 10:30:27;;;;;;;1.63;1.30;;;14.10;99.90;;;;;;5012205;28;20492;-54
2024/04/02 10:32:56;;;;;;;5.37;2.13;;;14.30;99.90;;;;;;5012235;28;20434;-56
2024/04/02 10:35:26;;;;;;;6.73;1.60;;;14.40;99.90;;;;;;5011990;28;20431;-52
2024/04/02 10:37:55;;;;;;;3.00;1.10;;;14.80;99.90;;;;;;5011992;28;20780;-59
2024/04/02 10:40:21;;;;;;;1.50;1.20;;;14.60;99.90;;;;;;5011480;28;20469;-52
2024/04/02 10:42:48;;;;;;;2.30;1.23;;;14.60;99.90;;;;;;5012121;28;20889;-52
2024/04/02 10:45:18;;;;;;;1.87;1.17;;;14.80;99.90;;;;;;5011998;28;20421;-55
2024/04/02 10:47:47;;;;;;;2.37;1.53;;;14.40;99.90;;;;;;5011828;28;20542;-54
2024/04/02 10:50:14;;;;;;;2.50;1.87;;;14.20;99.90;;;;;;5012201;28;20438;-51
2024/04/02 10:52:40;;;;;;;2.23;1.50;;;14.00;99.90;;;;;;5011699;28;20424;-50
2024/04/02 10:55:05;;;;;;;1.50;1.33;;;13.90;99.90;;;;;;5010495;28;20906;-53
2024/04/02 10:57:33;;;;;;;1.60;1.20;;;14.00;99.90;;;;;;5011487;28;20229;-57
2024/04/02 11:00:01;;;;;;;2.00;1.13;;;14.10;99.90;;;;;;5011781;28;20217;-55
2024/04/02 11:02:27;;;;;;;2.03;1.30;;;13.80;99.90;;;;;;5011840;28;20427;-54
2024/04/02 11:04:53;;;;;;;8.30;1.37;;;13.70;99.90;;;;;;5012295;28;20806;-52
2024/04/02 11:07:19;;;;;;;3.07;1.47;;;14.00;99.90;;;;;;5012095;28;20825;-55
2024/04/02 11:09:45;;;;;;;3.00;1.30;;;14.00;99.90;;;;;;5011647;28;20426;-55
2024/04/02 11:12:11;;;;;;;2.03;1.40;;;14.50;99.90;;;;;;5011975;28;20192;-56
2024/04/02 11:14:36;;;;;;;2.90;1.17;;;14.90;99.90;;;;;;5011263;28;20425;-49
2024/04/02 11:17:03;;;;;;;5.43;1.50;;;14.60;99.90;;;;;;5011567;28;20202;-54
2024/04/02 11:19:29;;;;;;;6.30;1.30;;;14.30;99.90;;;;;;5012809;28;20191;-52
2024/04/02 11:27:26;;;;;;;4.77;1.50;;;14.10;99.90;;;;;;5011329;28;20964;-55
2024/04/02 11:29:55;;;;;;;3.97;1.57;;;13.90;99.90;;;;;;5011459;28;20424;-57
2024/04/02 11:32:20;;;;;;;5.67;1.70;;;14.00;99.90;;;;;;5011326;28;20192;-54
2024/04/02 11:35:05;;;;;;;1.60;1.23;;;13.90;99.90;;;;;;5011232;28;20417;-56
2024/04/02 11:37:32;;;;;;;2.20;1.53;;;14.00;99.90;;;;;;5011092;28;20217;-52
2024/04/02 11:39:58;;;;;;;3.60;1.50;;;14.00;99.90;;;;;;5012517;28;20557;-55
2024/04/02 11:42:25;;;;;;;4.33;2.27;;;14.20;99.90;;;;;;5016649;28;20876;-55
2024/04/02 11:44:53;;;;;;;4.20;1.10;;;14.20;99.90;;;;;;5018270;28;20411;-52
2024/04/02 11:47:19;;;;;;;4.83;1.77;;;14.10;99.90;;;;;;5016399;28;20546;-57
2024/04/02 11:49:44;;;;;;;3.97;1.60;;;14.00;99.90;;;;;;5013048;28;20513;-56
2024/04/02 11:52:10;;;;;;;1.77;1.40;;;14.10;99.90;;;;;;5014983;28;20548;-53
2024/04/02 11:54:36;;;;;;;3.30;1.70;;;14.30;99.90;;;;;;5012527;28;20189;-52
2024/04/02 12:00:07;;;;;;;3.27;1.50;;;14.60;99.90;;;;;;5008906;28;20292;-54
2024/04/02 12:02:33;;;;;;;3.53;1.80;;;14.30;99.90;;;;;;5008288;28;20516;-58
2024/04/02 12:04:58;;;;;;;2.23;1.53;;;14.20;99.90;;;;;;5010590;28;20533;-54
2024/04/02 12:07:24;;;;;;;2.57;1.50;;;14.10;99.90;;;;;;5010701;28;20445;-53
2024/04/02 12:09:55;;;;;;;3.07;1.90;;;13.40;99.90;;;;;;5008663;28;20209;-53
2024/04/02 12:12:21;;;;;;;2.80;1.70;;;13.10;99.90;;;;;;5013876;28;20904;-52
2024/04/02 12:14:47;;;;;;;8.50;2.00;;;13.10;99.90;;;;;;5013436;28;20852;-56
2024/04/02 12:17:13;;;;;;;2.50;1.57;;;13.40;99.90;;;;;;5013683;28;20488;-56
2024/04/02 12:19:38;;;;;;;5.47;2.00;;;13.60;99.90;;;;;;5013920;28;20454;-53
2024/04/02 12:22:04;;;;;;;2.67;1.87;;;13.90;99.90;;;;;;5013956;28;20287;-51
2024/04/02 12:24:29;;;;;;;2.90;1.70;;;13.80;99.90;;;;;;5014055;28;20177;-55
2024/04/02 12:26:55;;;;;;;3.10;1.73;;;13.50;99.90;;;;;;5014243;28;20694;-58
2024/04/02 12:29:20;;;;;;;4.60;1.73;;;12.90;99.90;;;;;;5014191;28;20181;-53
2024/04/02 12:31:46;;;;;;;4.53;2.07;;;12.50;99.90;;;;;;5013905;28;20263;-54
2024/04/02 12:34:12;;;;;;;3.50;2.37;;;12.00;99.90;;;;;;5014050;28;20180;-54
2024/04/02 12:36:38;;;;;;;3.13;2.57;;;12.20;99.90;;;;;;5013756;28;20259;-55
2024/04/02 12:39:03;;;;;;;3.17;1.73;;;12.50;99.90;;;;;;5014001;28;20176;-54
2024/04/02 12:41:29;;;;;;;2.20;2.00;;;12.90;99.90;;;;;;5013631;28;20544;-56
2024/04/02 12:43:56;;;;;;;2.40;2.20;;;13.00;99.90;;;;;;5013858;28;20180;-53
2024/04/02 12:46:21;;;;;;;1.80;1.57;;;13.10;99.90;;;;;;5013843;28;20590;-59
2024/04/02 12:48:47;;;;;;;4.97;2.20;;;13.20;99.90;;;;;;5012436;28;20431;-53
2024/04/02 12:51:13;;;;;;;4.93;1.77;;;13.50;99.90;;;;;;5009683;28;20215;-54
2024/04/02 12:53:38;;;;;;;3.97;1.77;;;13.70;99.90;;;;;;5011591;28;20198;-52
2024/04/02 12:56:08;;;;;;;4.00;1.93;;;13.40;99.90;;;;;;5010129;28;20188;-51